sensor_id;sensor_type;location;lat;lon;timestamp;P1;durP1;ratioP1;P2;durP2;ratioP2
31836;SDS011;18401;49.344;6.240;2023-09-18T00:00:42;25.77;;;5.10;;
31836;SDS011;18401;49.344;6.240;2023-09-18T00:03:09;24.48;;;6.80;;
31836;SDS011;18401;49.344;6.240;2023-09-18T00:05:34;24.15;;;5.88;;
31836;SDS011;18401;49.344;6.240;2023-09-18T00:08:00;17.13;;;5.75;;
31836;SDS011;18401;49.344;6.240;2023-09-18T00:10:29;32.25;;;6.60;;
31836;SDS011;18401;49.344;6.240;2023-09-18T00:12:55;26.75;;;6.85;;
31836;SDS011;18401;49.344;6.240;2023-09-18T00:15:21;27.02;;;10.30;;
31836;SDS011;18401;49.344;6.240;2023-09-18T00:17:47;29.90;;;8.75;;
31836;SDS011;18401;49.344;6.240;2023-09-18T00:20:13;19.23;;;6.60;;
31836;SDS011;18401;49.344;6.240;2023-09-18T00:22:38;20.80;;;6.78;;
31836;SDS011;18401;49.344;6.240;2023-09-18T00:25:04;30.23;;;7.30;;
31836;SDS011;18401;49.344;6.240;2023-09-18T00:27:30;23.67;;;4.63;;
31836;SDS011;18401;49.344;6.240;2023-09-18T00:29:57;16.63;;;5.65;;
31836;SDS011;18401;49.344;6.240;2023-09-18T00:32:23;27.00;;;5.00;;
31836;SDS011;18401;49.344;6.240;2023-09-18T00:34:49;14.50;;;3.35;;
31836;SDS011;18401;49.344;6.240;2023-09-18T00:37:15;9.48;;;2.90;;
31836;SDS011;18401;49.344;6.240;2023-09-18T00:39:42;14.30;;;3.17;;
31836;SDS011;18401;49.344;6.240;2023-09-18T00:42:08;11.77;;;3.58;;
31836;SDS011;18401;49.344;6.240;2023-09-18T00:44:38;13.23;;;3.03;;
31836;SDS011;18401;49.344;6.240;2023-09-18T00:47:06;14.40;;;2.88;;
31836;SDS011;18401;49.344;6.240;2023-09-18T00:49:32;11.05;;;2.80;;
31836;SDS011;18401;49.344;6.240;2023-09-18T00:51:58;20.90;;;3.47;;
31836;SDS011;18401;49.344;6.240;2023-09-18T00:54:24;15.50;;;3.30;;
31836;SDS011;18401;49.344;6.240;2023-09-18T00:56:50;15.20;;;3.40;;
31836;SDS011;18401;49.344;6.240;2023-09-18T00:59:19;11.23;;;2.72;;
31836;SDS011;18401;49.344;6.240;2023-09-18T01:01:46;15.52;;;3.20;;
31836;SDS011;18401;49.344;6.240;2023-09-18T01:04:13;21.85;;;4.05;;
31836;SDS011;18401;49.344;6.240;2023-09-18T01:06:39;21.88;;;3.97;;
31836;SDS011;18401;49.344;6.240;2023-09-18T01:09:05;17.45;;;4.50;;
31836;SDS011;18401;49.344;6.240;2023-09-18T01:11:54;20.92;;;3.90;;
31836;SDS011;18401;49.344;6.240;2023-09-18T01:17:22;16.58;;;4.50;;
31836;SDS011;18401;49.344;6.240;2023-09-18T01:19:48;12.57;;;4.13;;
31836;SDS011;18401;49.344;6.240;2023-09-18T01:22:15;16.45;;;4.43;;
31836;SDS011;18401;49.344;6.240;2023-09-18T01:24:41;16.90;;;3.95;;
31836;SDS011;18401;49.344;6.240;2023-09-18T01:27:10;15.23;;;3.63;;
31836;SDS011;18401;49.344;6.240;2023-09-18T01:29:46;18.20;;;3.83;;
31836;SDS011;18401;49.344;6.240;2023-09-18T01:32:14;20.58;;;4.70;;
31836;SDS011;18401;49.344;6.240;2023-09-18T01:34:44;17.98;;;4.35;;
31836;SDS011;18401;49.344;6.240;2023-09-18T01:37:19;10.68;;;3.80;;
31836;SDS011;18401;49.344;6.240;2023-09-18T01:39:48;16.65;;;3.80;;
31836;SDS011;18401;49.344;6.240;2023-09-18T01:42:15;21.52;;;3.90;;
31836;SDS011;18401;49.344;6.240;2023-09-18T01:44:42;13.68;;;3.58;;
31836;SDS011;18401;49.344;6.240;2023-09-18T01:47:10;19.65;;;4.13;;
31836;SDS011;18401;49.344;6.240;2023-09-18T01:49:39;11.45;;;3.40;;
31836;SDS011;18401;49.344;6.240;2023-09-18T01:52:06;13.45;;;3.92;;
31836;SDS011;18401;49.344;6.240;2023-09-18T01:54:33;17.65;;;3.45;;
31836;SDS011;18401;49.344;6.240;2023-09-18T01:56:59;20.83;;;3.47;;
31836;SDS011;18401;49.344;6.240;2023-09-18T01:59:26;16.48;;;3.75;;
31836;SDS011;18401;49.344;6.240;2023-09-18T02:01:52;13.13;;;2.80;;
31836;SDS011;18401;49.344;6.240;2023-09-18T02:04:18;15.63;;;3.67;;
31836;SDS011;18401;49.344;6.240;2023-09-18T02:06:45;12.10;;;2.92;;
31836;SDS011;18401;49.344;6.240;2023-09-18T02:09:12;7.28;;;2.75;;
31836;SDS011;18401;49.344;6.240;2023-09-18T02:11:39;21.98;;;3.10;;
31836;SDS011;18401;49.344;6.240;2023-09-18T02:14:06;13.63;;;2.92;;
31836;SDS011;18401;49.344;6.240;2023-09-18T02:16:33;9.30;;;2.88;;
31836;SDS011;18401;49.344;6.240;2023-09-18T02:18:59;12.35;;;2.75;;
31836;SDS011;18401;49.344;6.240;2023-09-18T02:21:25;8.88;;;2.35;;
31836;SDS011;18401;49.344;6.240;2023-09-18T02:23:51;12.38;;;3.08;;
31836;SDS011;18401;49.344;6.240;2023-09-18T02:26:18;8.52;;;2.10;;
31836;SDS011;18401;49.344;6.240;2023-09-18T02:28:44;12.73;;;2.67;;
31836;SDS011;18401;49.344;6.240;2023-09-18T02:31:10;13.02;;;2.75;;
31836;SDS011;18401;49.344;6.240;2023-09-18T02:33:36;6.93;;;2.50;;
31836;SDS011;18401;49.344;6.240;2023-09-18T02:36:02;12.40;;;2.28;;
31836;SDS011;18401;49.344;6.240;2023-09-18T02:38:28;8.88;;;2.42;;
31836;SDS011;18401;49.344;6.240;2023-09-18T02:40:55;11.52;;;2.85;;
31836;SDS011;18401;49.344;6.240;2023-09-18T02:43:22;13.35;;;2.65;;
31836;SDS011;18401;49.344;6.240;2023-09-18T02:45:48;8.38;;;2.13;;
31836;SDS011;18401;49.344;6.240;2023-09-18T02:48:14;7.70;;;2.15;;
31836;SDS011;18401;49.344;6.240;2023-09-18T02:50:39;8.07;;;2.33;;
31836;SDS011;18401;49.344;6.240;2023-09-18T02:53:05;10.75;;;2.35;;
31836;SDS011;18401;49.344;6.240;2023-09-18T02:55:33;7.90;;;2.40;;
31836;SDS011;18401;49.344;6.240;2023-09-18T02:57:59;7.00;;;1.80;;
31836;SDS011;18401;49.344;6.240;2023-09-18T03:00:25;8.63;;;1.95;;
31836;SDS011;18401;49.344;6.240;2023-09-18T03:02:50;16.83;;;3.63;;
31836;SDS011;18401;49.344;6.240;2023-09-18T03:05:16;7.78;;;2.33;;
31836;SDS011;18401;49.344;6.240;2023-09-18T03:07:42;6.13;;;1.55;;
31836;SDS011;18401;49.344;6.240;2023-09-18T03:10:09;8.05;;;2.03;;
31836;SDS011;18401;49.344;6.240;2023-09-18T03:12:38;5.32;;;1.65;;
31836;SDS011;18401;49.344;6.240;2023-09-18T03:15:04;2.97;;;1.60;;
31836;SDS011;18401;49.344;6.240;2023-09-18T03:17:31;7.15;;;1.65;;
31836;SDS011;18401;49.344;6.240;2023-09-18T03:19:57;5.65;;;1.58;;
31836;SDS011;18401;49.344;6.240;2023-09-18T03:22:22;7.40;;;1.88;;
31836;SDS011;18401;49.344;6.240;2023-09-18T03:24:48;2.80;;;1.30;;
31836;SDS011;18401;49.344;6.240;2023-09-18T03:27:14;6.55;;;1.42;;
31836;SDS011;18401;49.344;6.240;2023-09-18T03:29:40;9.88;;;1.42;;
31836;SDS011;18401;49.344;6.240;2023-09-18T03:32:05;3.25;;;1.67;;
31836;SDS011;18401;49.344;6.240;2023-09-18T03:34:31;2.15;;;1.30;;
31836;SDS011;18401;49.344;6.240;2023-09-18T03:36:57;3.35;;;1.02;;
31836;SDS011;18401;49.344;6.240;2023-09-18T03:39:22;6.88;;;1.88;;
31836;SDS011;18401;49.344;6.240;2023-09-18T03:41:48;4.60;;;2.17;;
31836;SDS011;18401;49.344;6.240;2023-09-18T03:44:14;5.38;;;1.35;;
31836;SDS011;18401;49.344;6.240;2023-09-18T03:46:41;7.72;;;1.88;;
31836;SDS011;18401;49.344;6.240;2023-09-18T03:49:07;4.30;;;1.40;;
31836;SDS011;18401;49.344;6.240;2023-09-18T03:51:32;7.55;;;2.20;;
31836;SDS011;18401;49.344;6.240;2023-09-18T03:53:58;6.63;;;1.38;;
31836;SDS011;18401;49.344;6.240;2023-09-18T03:56:24;7.63;;;1.65;;
31836;SDS011;18401;49.344;6.240;2023-09-18T03:58:49;4.78;;;1.50;;
31836;SDS011;18401;49.344;6.240;2023-09-18T04:01:16;6.85;;;1.20;;
31836;SDS011;18401;49.344;6.240;2023-09-18T04:03:42;5.80;;;2.97;;
31836;SDS011;18401;49.344;6.240;2023-09-18T04:06:07;10.07;;;1.58;;
31836;SDS011;18401;49.344;6.240;2023-09-18T04:08:33;4.75;;;1.23;;
31836;SDS011;18401;49.344;6.240;2023-09-18T04:10:59;4.43;;;1.52;;
31836;SDS011;18401;49.344;6.240;2023-09-18T04:13:25;9.65;;;1.50;;
31836;SDS011;18401;49.344;6.240;2023-09-18T04:15:50;4.72;;;1.60;;
31836;SDS011;18401;49.344;6.240;2023-09-18T04:18:21;5.13;;;1.85;;
31836;SDS011;18401;49.344;6.240;2023-09-18T04:20:47;8.07;;;1.75;;
31836;SDS011;18401;49.344;6.240;2023-09-18T04:23:18;6.07;;;1.83;;
31836;SDS011;18401;49.344;6.240;2023-09-18T04:25:46;5.78;;;1.67;;
31836;SDS011;18401;49.344;6.240;2023-09-18T04:28:16;3.65;;;1.70;;
31836;SDS011;18401;49.344;6.240;2023-09-18T04:30:43;7.63;;;1.85;;
31836;SDS011;18401;49.344;6.240;2023-09-18T04:33:09;4.63;;;1.88;;
31836;SDS011;18401;49.344;6.240;2023-09-18T04:35:35;3.13;;;1.42;;
31836;SDS011;18401;49.344;6.240;2023-09-18T04:38:02;4.05;;;1.80;;
31836;SDS011;18401;49.344;6.240;2023-09-18T04:40:28;4.13;;;1.63;;
31836;SDS011;18401;49.344;6.240;2023-09-18T04:42:57;7.38;;;2.03;;
31836;SDS011;18401;49.344;6.240;2023-09-18T04:45:26;5.35;;;1.63;;
31836;SDS011;18401;49.344;6.240;2023-09-18T04:47:52;8.60;;;1.65;;
31836;SDS011;18401;49.344;6.240;2023-09-18T04:50:18;11.00;;;2.38;;
31836;SDS011;18401;49.344;6.240;2023-09-18T04:52:44;8.43;;;1.48;;
31836;SDS011;18401;49.344;6.240;2023-09-18T04:55:10;7.07;;;2.08;;
31836;SDS011;18401;49.344;6.240;2023-09-18T04:57:36;8.85;;;1.77;;
31836;SDS011;18401;49.344;6.240;2023-09-18T05:00:02;8.45;;;1.65;;
31836;SDS011;18401;49.344;6.240;2023-09-18T05:02:33;8.40;;;1.75;;
31836;SDS011;18401;49.344;6.240;2023-09-18T05:04:59;5.50;;;1.70;;
31836;SDS011;18401;49.344;6.240;2023-09-18T05:07:25;3.38;;;1.50;;
31836;SDS011;18401;49.344;6.240;2023-09-18T05:09:51;2.80;;;1.50;;
31836;SDS011;18401;49.344;6.240;2023-09-18T05:12:17;5.05;;;1.25;;
31836;SDS011;18401;49.344;6.240;2023-09-18T05:14:43;4.50;;;1.50;;
31836;SDS011;18401;49.344;6.240;2023-09-18T05:17:10;6.20;;;1.17;;
31836;SDS011;18401;49.344;6.240;2023-09-18T05:19:38;7.40;;;1.70;;
31836;SDS011;18401;49.344;6.240;2023-09-18T05:22:05;5.03;;;1.27;;
31836;SDS011;18401;49.344;6.240;2023-09-18T05:24:31;5.65;;;1.67;;
31836;SDS011;18401;49.344;6.240;2023-09-18T05:26:56;7.10;;;1.75;;
31836;SDS011;18401;49.344;6.240;2023-09-18T05:29:22;8.60;;;1.35;;
31836;SDS011;18401;49.344;6.240;2023-09-18T05:31:47;3.80;;;1.08;;
31836;SDS011;18401;49.344;6.240;2023-09-18T05:34:13;4.22;;;1.60;;
31836;SDS011;18401;49.344;6.240;2023-09-18T05:36:39;8.60;;;1.50;;
31836;SDS011;18401;49.344;6.240;2023-09-18T05:39:05;1.67;;;1.08;;
31836;SDS011;18401;49.344;6.240;2023-09-18T05:41:35;4.25;;;1.20;;
31836;SDS011;18401;49.344;6.240;2023-09-18T05:44:01;6.07;;;1.40;;
31836;SDS011;18401;49.344;6.240;2023-09-18T05:46:28;3.95;;;1.05;;
31836;SDS011;18401;49.344;6.240;2023-09-18T05:48:54;5.32;;;1.40;;
31836;SDS011;18401;49.344;6.240;2023-09-18T05:51:22;9.45;;;1.60;;
31836;SDS011;18401;49.344;6.240;2023-09-18T05:53:48;10.57;;;1.30;;
31836;SDS011;18401;49.344;6.240;2023-09-18T05:56:14;5.10;;;1.38;;
31836;SDS011;18401;49.344;6.240;2023-09-18T05:58:42;5.82;;;1.38;;
31836;SDS011;18401;49.344;6.240;2023-09-18T06:01:07;8.02;;;1.23;;
31836;SDS011;18401;49.344;6.240;2023-09-18T06:03:33;4.78;;;1.23;;
31836;SDS011;18401;49.344;6.240;2023-09-18T06:06:03;5.07;;;1.27;;
31836;SDS011;18401;49.344;6.240;2023-09-18T06:08:29;4.43;;;1.10;;
31836;SDS011;18401;49.344;6.240;2023-09-18T06:10:56;4.45;;;1.23;;
31836;SDS011;18401;49.344;6.240;2023-09-18T06:13:23;4.43;;;0.70;;
31836;SDS011;18401;49.344;6.240;2023-09-18T06:15:50;4.18;;;1.13;;
31836;SDS011;18401;49.344;6.240;2023-09-18T06:18:17;5.10;;;1.52;;
31836;SDS011;18401;49.344;6.240;2023-09-18T06:20:45;10.25;;;1.23;;
31836;SDS011;18401;49.344;6.240;2023-09-18T06:23:11;3.55;;;1.08;;
31836;SDS011;18401;49.344;6.240;2023-09-18T06:25:37;6.53;;;1.48;;
31836;SDS011;18401;49.344;6.240;2023-09-18T06:28:04;2.40;;;0.80;;
31836;SDS011;18401;49.344;6.240;2023-09-18T06:30:30;5.47;;;0.80;;
31836;SDS011;18401;49.344;6.240;2023-09-18T06:32:58;3.25;;;1.27;;
31836;SDS011;18401;49.344;6.240;2023-09-18T06:35:24;7.93;;;1.10;;
31836;SDS011;18401;49.344;6.240;2023-09-18T06:37:50;5.65;;;1.35;;
31836;SDS011;18401;49.344;6.240;2023-09-18T06:40:15;3.83;;;0.88;;
31836;SDS011;18401;49.344;6.240;2023-09-18T06:42:41;3.63;;;0.80;;
31836;SDS011;18401;49.344;6.240;2023-09-18T06:45:07;4.20;;;0.80;;
31836;SDS011;18401;49.344;6.240;2023-09-18T06:47:33;6.72;;;1.23;;
31836;SDS011;18401;49.344;6.240;2023-09-18T06:49:59;4.00;;;0.98;;
31836;SDS011;18401;49.344;6.240;2023-09-18T06:52:25;5.28;;;1.00;;
31836;SDS011;18401;49.344;6.240;2023-09-18T06:54:53;7.13;;;0.85;;
31836;SDS011;18401;49.344;6.240;2023-09-18T06:57:18;4.65;;;1.08;;
31836;SDS011;18401;49.344;6.240;2023-09-18T06:59:46;2.92;;;0.70;;
31836;SDS011;18401;49.344;6.240;2023-09-18T07:02:12;2.35;;;0.88;;
31836;SDS011;18401;49.344;6.240;2023-09-18T07:04:39;3.75;;;0.60;;
31836;SDS011;18401;49.344;6.240;2023-09-18T07:07:09;5.68;;;1.00;;
31836;SDS011;18401;49.344;6.240;2023-09-18T07:09:37;5.80;;;0.98;;
31836;SDS011;18401;49.344;6.240;2023-09-18T07:12:03;4.15;;;0.60;;
31836;SDS011;18401;49.344;6.240;2023-09-18T07:14:29;2.53;;;0.68;;
31836;SDS011;18401;49.344;6.240;2023-09-18T07:16:55;1.48;;;0.63;;
31836;SDS011;18401;49.344;6.240;2023-09-18T07:19:21;1.42;;;0.80;;
31836;SDS011;18401;49.344;6.240;2023-09-18T07:21:47;9.40;;;0.90;;
31836;SDS011;18401;49.344;6.240;2023-09-18T07:24:13;4.57;;;0.60;;
31836;SDS011;18401;49.344;6.240;2023-09-18T07:26:43;2.40;;;0.75;;
31836;SDS011;18401;49.344;6.240;2023-09-18T07:29:13;1.63;;;0.75;;
31836;SDS011;18401;49.344;6.240;2023-09-18T07:31:40;7.28;;;1.13;;
31836;SDS011;18401;49.344;6.240;2023-09-18T07:34:06;2.25;;;0.73;;
31836;SDS011;18401;49.344;6.240;2023-09-18T07:36:32;4.47;;;0.85;;
31836;SDS011;18401;49.344;6.240;2023-09-18T07:38:57;3.28;;;0.60;;
31836;SDS011;18401;49.344;6.240;2023-09-18T07:41:23;1.95;;;0.68;;
31836;SDS011;18401;49.344;6.240;2023-09-18T07:43:50;10.43;;;0.82;;
31836;SDS011;18401;49.344;6.240;2023-09-18T07:46:15;2.72;;;0.60;;
31836;SDS011;18401;49.344;6.240;2023-09-18T07:48:41;4.55;;;0.80;;
31836;SDS011;18401;49.344;6.240;2023-09-18T07:51:10;7.50;;;1.33;;
31836;SDS011;18401;49.344;6.240;2023-09-18T07:53:36;3.53;;;0.70;;
31836;SDS011;18401;49.344;6.240;2023-09-18T07:56:02;5.03;;;0.70;;
31836;SDS011;18401;49.344;6.240;2023-09-18T07:58:30;4.80;;;1.05;;
31836;SDS011;18401;49.344;6.240;2023-09-18T08:00:56;3.83;;;0.73;;
31836;SDS011;18401;49.344;6.240;2023-09-18T08:03:22;8.00;;;1.13;;
31836;SDS011;18401;49.344;6.240;2023-09-18T08:05:50;3.58;;;0.77;;
31836;SDS011;18401;49.344;6.240;2023-09-18T08:08:17;1.33;;;0.70;;
31836;SDS011;18401;49.344;6.240;2023-09-18T08:10:45;1.75;;;0.80;;
31836;SDS011;18401;49.344;6.240;2023-09-18T08:13:11;4.55;;;0.93;;
31836;SDS011;18401;49.344;6.240;2023-09-18T08:15:38;1.85;;;0.60;;
31836;SDS011;18401;49.344;6.240;2023-09-18T08:18:04;7.25;;;0.93;;
31836;SDS011;18401;49.344;6.240;2023-09-18T08:20:30;4.93;;;0.80;;
31836;SDS011;18401;49.344;6.240;2023-09-18T08:22:56;1.83;;;0.80;;
31836;SDS011;18401;49.344;6.240;2023-09-18T08:25:22;0.90;;;0.60;;
31836;SDS011;18401;49.344;6.240;2023-09-18T08:27:47;4.95;;;0.90;;
31836;SDS011;18401;49.344;6.240;2023-09-18T08:30:13;2.03;;;0.52;;
31836;SDS011;18401;49.344;6.240;2023-09-18T08:32:41;11.13;;;0.90;;
31836;SDS011;18401;49.344;6.240;2023-09-18T08:35:08;6.80;;;0.80;;
31836;SDS011;18401;49.344;6.240;2023-09-18T08:37:34;5.32;;;0.95;;
31836;SDS011;18401;49.344;6.240;2023-09-18T08:40:00;5.20;;;0.63;;
31836;SDS011;18401;49.344;6.240;2023-09-18T08:42:31;2.42;;;0.60;;
31836;SDS011;18401;49.344;6.240;2023-09-18T08:44:59;2.92;;;0.63;;
31836;SDS011;18401;49.344;6.240;2023-09-18T08:47:26;3.05;;;0.80;;
31836;SDS011;18401;49.344;6.240;2023-09-18T08:49:52;6.07;;;0.93;;
31836;SDS011;18401;49.344;6.240;2023-09-18T08:52:20;2.35;;;0.80;;
31836;SDS011;18401;49.344;6.240;2023-09-18T08:54:47;2.33;;;0.95;;
31836;SDS011;18401;49.344;6.240;2023-09-18T08:57:14;4.13;;;0.73;;
31836;SDS011;18401;49.344;6.240;2023-09-18T08:59:40;4.70;;;0.95;;
31836;SDS011;18401;49.344;6.240;2023-09-18T09:02:07;2.40;;;0.65;;
31836;SDS011;18401;49.344;6.240;2023-09-18T09:04:36;5.55;;;0.80;;
31836;SDS011;18401;49.344;6.240;2023-09-18T09:07:02;5.43;;;0.80;;
31836;SDS011;18401;49.344;6.240;2023-09-18T09:09:28;2.47;;;0.82;;
31836;SDS011;18401;49.344;6.240;2023-09-18T09:11:56;4.00;;;1.30;;
31836;SDS011;18401;49.344;6.240;2023-09-18T09:14:21;5.53;;;1.13;;
31836;SDS011;18401;49.344;6.240;2023-09-18T09:16:53;5.47;;;1.35;;
31836;SDS011;18401;49.344;6.240;2023-09-18T09:19:41;6.57;;;1.52;;
31836;SDS011;18401;49.344;6.240;2023-09-18T09:22:07;8.90;;;1.05;;
31836;SDS011;18401;49.344;6.240;2023-09-18T09:24:38;1.95;;;0.95;;
31836;SDS011;18401;49.344;6.240;2023-09-18T09:27:08;4.03;;;1.33;;
31836;SDS011;18401;49.344;6.240;2023-09-18T09:29:34;6.00;;;1.20;;
31836;SDS011;18401;49.344;6.240;2023-09-18T09:32:33;3.53;;;1.20;;
31836;SDS011;18401;49.344;6.240;2023-09-18T09:34:57;5.40;;;1.17;;
31836;SDS011;18401;49.344;6.240;2023-09-18T09:37:31;4.13;;;0.85;;
31836;SDS011;18401;49.344;6.240;2023-09-18T09:39:57;2.45;;;1.17;;
31836;SDS011;18401;49.344;6.240;2023-09-18T09:42:37;6.82;;;1.00;;
31836;SDS011;18401;49.344;6.240;2023-09-18T09:45:04;3.72;;;1.00;;
31836;SDS011;18401;49.344;6.240;2023-09-18T09:47:36;3.28;;;1.13;;
31836;SDS011;18401;49.344;6.240;2023-09-18T09:50:06;5.25;;;1.95;;
31836;SDS011;18401;49.344;6.240;2023-09-18T09:52:34;5.13;;;1.05;;
31836;SDS011;18401;49.344;6.240;2023-09-18T09:55:01;5.80;;;1.02;;
31836;SDS011;18401;49.344;6.240;2023-09-18T09:57:30;4.70;;;0.80;;
31836;SDS011;18401;49.344;6.240;2023-09-18T10:00:09;4.22;;;1.23;;
31836;SDS011;18401;49.344;6.240;2023-09-18T10:02:47;2.95;;;0.80;;
31836;SDS011;18401;49.344;6.240;2023-09-18T10:05:14;2.50;;;1.10;;
31836;SDS011;18401;49.344;6.240;2023-09-18T10:07:41;6.90;;;1.58;;
31836;SDS011;18401;49.344;6.240;2023-09-18T10:10:07;3.83;;;1.45;;
31836;SDS011;18401;49.344;6.240;2023-09-18T10:12:34;12.82;;;1.70;;
31836;SDS011;18401;49.344;6.240;2023-09-18T10:15:01;2.97;;;0.85;;
31836;SDS011;18401;49.344;6.240;2023-09-18T10:17:28;3.00;;;0.85;;
31836;SDS011;18401;49.344;6.240;2023-09-18T10:20:03;5.85;;;1.00;;
31836;SDS011;18401;49.344;6.240;2023-09-18T10:22:41;3.83;;;0.90;;
31836;SDS011;18401;49.344;6.240;2023-09-18T10:27:49;3.08;;;0.70;;
31836;SDS011;18401;49.344;6.240;2023-09-18T10:30:18;3.00;;;0.77;;
31836;SDS011;18401;49.344;6.240;2023-09-18T10:32:45;3.63;;;1.10;;
31836;SDS011;18401;49.344;6.240;2023-09-18T10:35:11;5.78;;;1.55;;
31836;SDS011;18401;49.344;6.240;2023-09-18T10:37:37;0.90;;;0.85;;
31836;SDS011;18401;49.344;6.240;2023-09-18T10:40:04;4.25;;;0.93;;
31836;SDS011;18401;49.344;6.240;2023-09-18T10:42:33;7.10;;;1.10;;
31836;SDS011;18401;49.344;6.240;2023-09-18T10:45:00;1.90;;;1.00;;
31836;SDS011;18401;49.344;6.240;2023-09-18T10:47:29;4.63;;;1.20;;
31836;SDS011;18401;49.344;6.240;2023-09-18T10:49:56;1.75;;;0.88;;
31836;SDS011;18401;49.344;6.240;2023-09-18T10:52:22;2.90;;;0.60;;
31836;SDS011;18401;49.344;6.240;2023-09-18T10:54:47;3.55;;;0.73;;
31836;SDS011;18401;49.344;6.240;2023-09-18T10:57:13;1.02;;;0.82;;
31836;SDS011;18401;49.344;6.240;2023-09-18T10:59:43;2.95;;;0.90;;
31836;SDS011;18401;49.344;6.240;2023-09-18T11:02:13;1.52;;;0.85;;
31836;SDS011;18401;49.344;6.240;2023-09-18T11:04:40;2.97;;;0.88;;
31836;SDS011;18401;49.344;6.240;2023-09-18T11:07:06;3.35;;;0.82;;
31836;SDS011;18401;49.344;6.240;2023-09-18T11:09:40;2.58;;;1.00;;
31836;SDS011;18401;49.344;6.240;2023-09-18T11:12:10;3.35;;;0.98;;
31836;SDS011;18401;49.344;6.240;2023-09-18T11:17:32;3.47;;;1.02;;
31836;SDS011;18401;49.344;6.240;2023-09-18T11:20:08;4.32;;;0.93;;
31836;SDS011;18401;49.344;6.240;2023-09-18T11:22:55;2.58;;;1.15;;
31836;SDS011;18401;49.344;6.240;2023-09-18T11:28:06;2.08;;;0.70;;
31836;SDS011;18401;49.344;6.240;2023-09-18T11:30:38;6.32;;;0.93;;
31836;SDS011;18401;49.344;6.240;2023-09-18T11:33:30;4.10;;;1.10;;
31836;SDS011;18401;49.344;6.240;2023-09-18T11:36:04;3.25;;;1.13;;
31836;SDS011;18401;49.344;6.240;2023-09-18T11:41:30;1.90;;;0.60;;
31836;SDS011;18401;49.344;6.240;2023-09-18T11:46:38;2.85;;;1.02;;
31836;SDS011;18401;49.344;6.240;2023-09-18T11:49:08;1.80;;;1.08;;
31836;SDS011;18401;49.344;6.240;2023-09-18T11:51:36;3.13;;;0.90;;
31836;SDS011;18401;49.344;6.240;2023-09-18T11:54:02;4.80;;;0.98;;
31836;SDS011;18401;49.344;6.240;2023-09-18T11:56:31;3.72;;;0.90;;
31836;SDS011;18401;49.344;6.240;2023-09-18T11:58:57;3.85;;;1.13;;
31836;SDS011;18401;49.344;6.240;2023-09-18T12:01:24;4.63;;;1.13;;
31836;SDS011;18401;49.344;6.240;2023-09-18T12:03:55;3.83;;;0.73;;
31836;SDS011;18401;49.344;6.240;2023-09-18T12:06:25;1.90;;;0.90;;
31836;SDS011;18401;49.344;6.240;2023-09-18T12:08:51;2.60;;;0.82;;
31836;SDS011;18401;49.344;6.240;2023-09-18T12:11:18;1.40;;;0.80;;
31836;SDS011;18401;49.344;6.240;2023-09-18T12:13:45;2.10;;;0.90;;
31836;SDS011;18401;49.344;6.240;2023-09-18T12:16:20;5.18;;;0.65;;
31836;SDS011;18401;49.344;6.240;2023-09-18T12:18:47;5.43;;;1.45;;
31836;SDS011;18401;49.344;6.240;2023-09-18T12:21:13;3.85;;;0.90;;
31836;SDS011;18401;49.344;6.240;2023-09-18T12:23:41;4.95;;;0.88;;
31836;SDS011;18401;49.344;6.240;2023-09-18T12:26:11;7.88;;;1.00;;
31836;SDS011;18401;49.344;6.240;2023-09-18T12:28:41;1.45;;;0.98;;
31836;SDS011;18401;49.344;6.240;2023-09-18T12:31:12;4.38;;;0.95;;
31836;SDS011;18401;49.344;6.240;2023-09-18T12:33:39;3.80;;;1.20;;
31836;SDS011;18401;49.344;6.240;2023-09-18T12:36:06;8.65;;;1.08;;
31836;SDS011;18401;49.344;6.240;2023-09-18T12:38:33;1.52;;;0.82;;
31836;SDS011;18401;49.344;6.240;2023-09-18T12:40:59;4.63;;;0.77;;
31836;SDS011;18401;49.344;6.240;2023-09-18T12:43:38;2.80;;;0.70;;
31836;SDS011;18401;49.344;6.240;2023-09-18T12:46:05;2.55;;;0.73;;
31836;SDS011;18401;49.344;6.240;2023-09-18T12:48:32;5.30;;;0.80;;
31836;SDS011;18401;49.344;6.240;2023-09-18T12:51:02;3.40;;;0.60;;
31836;SDS011;18401;49.344;6.240;2023-09-18T12:53:31;2.03;;;0.73;;
31836;SDS011;18401;49.344;6.240;2023-09-18T12:56:10;2.90;;;0.47;;
31836;SDS011;18401;49.344;6.240;2023-09-18T12:58:37;2.70;;;0.57;;
31836;SDS011;18401;49.344;6.240;2023-09-18T13:01:07;1.98;;;0.70;;
31836;SDS011;18401;49.344;6.240;2023-09-18T13:03:41;1.52;;;0.82;;
31836;SDS011;18401;49.344;6.240;2023-09-18T13:06:09;1.35;;;0.68;;
31836;SDS011;18401;49.344;6.240;2023-09-18T13:08:36;2.85;;;0.80;;
31836;SDS011;18401;49.344;6.240;2023-09-18T13:11:02;2.13;;;0.93;;
31836;SDS011;18401;49.344;6.240;2023-09-18T13:13:28;3.63;;;0.60;;
31836;SDS011;18401;49.344;6.240;2023-09-18T13:15:58;4.05;;;0.80;;
31836;SDS011;18401;49.344;6.240;2023-09-18T13:18:25;6.63;;;0.73;;
31836;SDS011;18401;49.344;6.240;2023-09-18T13:20:52;2.00;;;0.80;;
31836;SDS011;18401;49.344;6.240;2023-09-18T13:23:18;1.27;;;0.60;;
31836;SDS011;18401;49.344;6.240;2023-09-18T13:25:44;2.15;;;0.80;;
31836;SDS011;18401;49.344;6.240;2023-09-18T13:28:12;8.05;;;0.90;;
31836;SDS011;18401;49.344;6.240;2023-09-18T13:30:42;4.03;;;1.10;;
31836;SDS011;18401;49.344;6.240;2023-09-18T13:33:11;2.35;;;0.88;;
31836;SDS011;18401;49.344;6.240;2023-09-18T13:35:39;1.20;;;0.60;;
31836;SDS011;18401;49.344;6.240;2023-09-18T13:38:06;3.00;;;0.90;;
31836;SDS011;18401;49.344;6.240;2023-09-18T13:40:33;3.72;;;0.90;;
31836;SDS011;18401;49.344;6.240;2023-09-18T13:43:03;4.97;;;0.60;;
31836;SDS011;18401;49.344;6.240;2023-09-18T13:45:30;3.15;;;0.73;;
31836;SDS011;18401;49.344;6.240;2023-09-18T13:47:56;4.03;;;1.10;;
31836;SDS011;18401;49.344;6.240;2023-09-18T13:50:22;2.38;;;0.85;;
31836;SDS011;18401;49.344;6.240;2023-09-18T13:52:47;3.20;;;0.80;;
31836;SDS011;18401;49.344;6.240;2023-09-18T13:55:13;1.58;;;0.65;;
31836;SDS011;18401;49.344;6.240;2023-09-18T13:57:39;1.83;;;0.70;;
31836;SDS011;18401;49.344;6.240;2023-09-18T14:00:05;4.97;;;0.70;;
31836;SDS011;18401;49.344;6.240;2023-09-18T14:02:35;1.77;;;0.70;;
31836;SDS011;18401;49.344;6.240;2023-09-18T14:05:02;2.22;;;1.00;;
31836;SDS011;18401;49.344;6.240;2023-09-18T14:07:28;1.63;;;0.65;;
31836;SDS011;18401;49.344;6.240;2023-09-18T14:09:54;3.13;;;1.08;;
31836;SDS011;18401;49.344;6.240;2023-09-18T14:12:20;5.82;;;0.93;;
31836;SDS011;18401;49.344;6.240;2023-09-18T14:14:46;5.65;;;0.90;;
31836;SDS011;18401;49.344;6.240;2023-09-18T14:17:11;4.00;;;0.70;;
31836;SDS011;18401;49.344;6.240;2023-09-18T14:19:37;2.40;;;0.90;;
31836;SDS011;18401;49.344;6.240;2023-09-18T14:22:04;3.42;;;0.95;;
31836;SDS011;18401;49.344;6.240;2023-09-18T14:24:31;1.98;;;0.73;;
31836;SDS011;18401;49.344;6.240;2023-09-18T14:26:59;2.95;;;0.90;;
31836;SDS011;18401;49.344;6.240;2023-09-18T14:29:25;3.72;;;1.17;;
31836;SDS011;18401;49.344;6.240;2023-09-18T14:31:51;1.55;;;0.80;;
31836;SDS011;18401;49.344;6.240;2023-09-18T14:34:17;2.28;;;0.90;;
31836;SDS011;18401;49.344;6.240;2023-09-18T14:36:43;5.78;;;1.10;;
31836;SDS011;18401;49.344;6.240;2023-09-18T14:39:09;4.55;;;1.08;;
31836;SDS011;18401;49.344;6.240;2023-09-18T14:41:35;9.35;;;1.48;;
31836;SDS011;18401;49.344;6.240;2023-09-18T14:44:02;6.93;;;1.45;;
31836;SDS011;18401;49.344;6.240;2023-09-18T14:46:29;4.30;;;1.42;;
31836;SDS011;18401;49.344;6.240;2023-09-18T14:48:58;5.50;;;1.05;;
31836;SDS011;18401;49.344;6.240;2023-09-18T14:51:27;10.20;;;1.40;;
31836;SDS011;18401;49.344;6.240;2023-09-18T14:53:56;5.30;;;1.13;;
31836;SDS011;18401;49.344;6.240;2023-09-18T14:56:24;3.72;;;1.00;;
31836;SDS011;18401;49.344;6.240;2023-09-18T14:58:50;6.07;;;1.17;;
31836;SDS011;18401;49.344;6.240;2023-09-18T15:01:17;6.55;;;1.73;;
31836;SDS011;18401;49.344;6.240;2023-09-18T15:03:43;3.70;;;0.90;;